Time;durP1;ratioP1;P1;durP2;ratioP2;P2;SDS_P1;SDS_P2;PMS_P1;PMS_P2;Temp;Humidity;BMP_temperature;BMP_pressure;BME280_temperature;BME280_humidity;BME280_pressure;Samples;Min_cycle;Max_cycle;Signal;HPM_P1;HPM_P2
2023/05/25 00:01:34;;;;;;;9.23;2.40;;;;;;;9.01;96.38;101812.97;5053567;28;20951;-77
2023/05/25 00:04:02;;;;;;;6.50;2.63;;;;;;;8.92;96.70;101812.63;5053793;28;20868;-77
2023/05/25 00:06:30;;;;;;;12.10;3.63;;;;;;;8.90;96.92;101808.56;5053585;28;20463;-77
2023/05/25 00:08:57;;;;;;;8.10;2.80;;;;;;;8.98;96.22;101808.88;5053489;28;20512;-77
2023/05/25 00:11:25;;;;;;;7.30;2.50;;;;;;;9.02;96.43;101811.88;5053469;28;20500;-77
2023/05/25 00:13:52;;;;;;;6.67;2.53;;;;;;;9.03;96.09;101808.94;5053521;28;20852;-77
2023/05/25 00:16:20;;;;;;;7.80;2.37;;;;;;;8.98;96.23;101808.06;5053710;28;20451;-77
2023/05/25 00:18:47;;;;;;;11.73;3.43;;;;;;;8.91;96.72;101813.72;5053365;28;20450;-77
2023/05/25 00:21:14;;;;;;;7.70;2.30;;;;;;;8.84;97.26;101813.13;5053711;28;20449;-77
2023/05/25 00:23:43;;;;;;;10.43;2.50;;;;;;;8.80;97.40;101810.09;5053802;28;20462;-77
2023/05/25 00:26:09;;;;;;;8.00;2.33;;;;;;;8.80;97.69;101812.00;5053304;28;20462;-77
2023/05/25 00:28:36;;;;;;;7.10;2.73;;;;;;;8.89;95.69;101810.44;5053527;28;20540;-77
2023/05/25 00:31:03;;;;;;;6.97;2.37;;;;;;;8.79;95.15;101811.19;5053307;28;20990;-77
2023/05/25 00:33:30;;;;;;;7.90;3.23;;;;;;;8.69;94.67;101813.00;5053083;28;20528;-76
2023/05/25 00:35:57;;;;;;;8.03;3.23;;;;;;;8.63;94.58;101814.84;5053275;28;20502;-76
2023/05/25 00:38:24;;;;;;;10.60;3.10;;;;;;;8.68;94.04;101812.19;5055664;28;20553;-76
2023/05/25 00:40:56;;;;;;;11.63;3.90;;;;;;;8.57;93.58;101810.47;5057493;28;20958;-78
2023/05/25 00:43:23;;;;;;;17.20;2.90;;;;;;;8.62;93.41;101809.69;5058083;28;20465;-77
2023/05/25 00:45:51;;;;;;;7.70;2.70;;;;;;;8.65;92.50;101807.31;5057444;28;20523;-76
2023/05/25 00:48:18;;;;;;;7.97;2.67;;;;;;;8.62;93.47;101798.91;5057538;28;20438;-77
2023/05/25 00:50:45;;;;;;;7.97;2.93;;;;;;;8.59;94.95;101802.94;5057295;28;20533;-76
2023/05/25 00:53:13;;;;;;;7.27;3.00;;;;;;;8.51;95.97;101798.81;5056979;28;20469;-77
2023/05/25 00:55:44;;;;;;;15.77;3.40;;;;;;;8.61;96.16;101808.06;5057251;28;20868;-77
2023/05/25 00:58:16;;;;;;;9.40;3.17;;;;;;;8.59;96.56;101801.06;5057051;28;20508;-77
2023/05/25 01:00:48;;;;;;;8.40;2.33;;;;;;;8.66;96.09;101803.53;5057150;28;20427;-77
2023/05/25 01:03:20;;;;;;;9.53;3.30;;;;;;;8.73;95.61;101801.44;5057382;28;20435;-77
2023/05/25 01:05:48;;;;;;;10.80;2.90;;;;;;;8.55;96.76;101799.94;5057354;28;20830;-77
2023/05/25 01:08:18;;;;;;;11.83;2.90;;;;;;;8.51;97.34;101806.91;5056933;28;21013;-77
2023/05/25 01:10:48;;;;;;;11.00;3.63;;;;;;;8.54;97.43;101801.03;5057107;28;20518;-77
2023/05/25 01:13:19;;;;;;;7.97;2.50;;;;;;;8.44;97.65;101800.91;5056498;28;20482;-77
2023/05/25 01:15:47;;;;;;;11.63;3.23;;;;;;;8.46;97.79;101800.66;5056909;28;20478;-77
2023/05/25 01:18:14;;;;;;;9.27;3.07;;;;;;;8.44;97.90;101805.50;5057250;28;20537;-77
2023/05/25 01:20:57;;;;;;;9.00;2.83;;;;;;;8.40;97.96;101798.97;5056589;28;20496;-77
2023/05/25 01:23:33;;;;;;;8.93;3.23;;;;;;;8.43;98.38;101801.19;5056532;28;20426;-77
2023/05/25 01:26:03;;;;;;;10.23;3.07;;;;;;;8.45;97.71;101793.63;5056390;28;20442;-77
2023/05/25 01:28:35;;;;;;;9.30;3.07;;;;;;;8.48;97.69;101801.22;5056754;28;20842;-76
2023/05/25 01:31:02;;;;;;;8.10;2.30;;;;;;;8.46;97.30;101803.38;5057001;28;20426;-77
2023/05/25 01:33:31;;;;;;;12.27;3.70;;;;;;;8.48;97.24;101806.63;5056673;28;20486;-77
2023/05/25 01:36:01;;;;;;;9.93;3.10;;;;;;;8.49;97.21;101802.84;5056437;28;20498;-76
2023/05/25 01:38:27;;;;;;;9.73;3.37;;;;;;;8.50;97.16;101799.06;5056507;28;20536;-76
2023/05/25 01:40:54;;;;;;;12.40;3.00;;;;;;;8.45;97.21;101801.72;5056639;28;20529;-76
2023/05/25 01:43:22;;;;;;;7.37;2.53;;;;;;;8.40;97.48;101799.78;5056090;28;20454;-76
2023/05/25 01:45:50;;;;;;;9.37;3.80;;;;;;;8.36;97.50;101806.72;5055955;28;20470;-76
2023/05/25 01:48:25;;;;;;;8.70;3.30;;;;;;;8.40;97.07;101816.00;5056200;28;20442;-76
2023/05/25 01:51:02;;;;;;;30.77;3.20;;;;;;;8.34;96.78;101812.41;5056397;28;20997;-76
2023/05/25 01:53:35;;;;;;;10.53;3.00;;;;;;;8.31;95.16;101807.50;5056345;28;20569;-76
2023/05/25 01:56:07;;;;;;;9.17;3.50;;;;;;;8.25;94.23;101803.13;5056198;28;20458;-76
2023/05/25 01:58:39;;;;;;;10.20;2.93;;;;;;;8.20;94.84;101800.41;5055980;28;20501;-76
2023/05/25 02:01:08;;;;;;;8.40;3.00;;;;;;;8.17;94.05;101809.00;5056366;28;20419;-76
2023/05/25 02:03:34;;;;;;;16.13;3.47;;;;;;;8.07;93.11;101803.50;5056269;28;20527;-76
2023/05/25 02:06:01;;;;;;;9.40;2.80;;;;;;;8.10;93.25;101802.97;5056031;28;20549;-76
2023/05/25 02:08:29;;;;;;;12.13;3.17;;;;;;;8.11;93.70;101801.09;5090217;22;20515;-77
2023/05/25 02:10:56;;;;;;;14.03;3.57;;;;;;;8.14;94.17;101804.09;5096434;28;20448;-77
2023/05/25 02:13:22;;;;;;;7.37;2.80;;;;;;;8.13;95.49;101804.34;5096378;28;21008;-77
2023/05/25 02:15:49;;;;;;;6.50;2.57;;;;;;;8.12;96.12;101803.53;5096525;28;20437;-76
2023/05/25 02:18:16;;;;;;;10.53;3.80;;;;;;;8.10;96.25;101808.38;5096126;28;20514;-77
2023/05/25 02:20:43;;;;;;;7.97;3.00;;;;;;;8.09;96.43;101807.56;5096476;28;20436;-76
2023/05/25 02:23:10;;;;;;;11.27;3.00;;;;;;;8.11;96.71;101804.63;5096501;28;20436;-76
2023/05/25 02:25:38;;;;;;;9.90;2.90;;;;;;;8.06;97.36;101813.47;5096291;28;20524;-77
2023/05/25 02:28:05;;;;;;;12.10;3.20;;;;;;;8.04;97.63;101814.78;5096112;28;20465;-77
2023/05/25 02:30:31;;;;;;;8.80;2.93;;;;;;;8.04;97.89;101817.50;5095980;28;20468;-76
2023/05/25 02:33:01;;;;;;;8.00;3.00;;;;;;;8.03;97.74;101813.97;5095723;28;20482;-76
2023/05/25 02:35:27;;;;;;;10.67;2.97;;;;;;;8.07;97.57;101817.00;5095818;28;20444;-76
2023/05/25 02:37:54;;;;;;;17.87;3.10;;;;;;;8.05;97.73;101816.41;5095684;28;20543;-76
2023/05/25 02:40:21;;;;;;;7.83;2.70;;;;;;;8.11;97.12;101814.59;5095380;28;20998;-77
2023/05/25 02:42:49;;;;;;;9.10;3.17;;;;;;;8.11;96.67;101818.13;5095430;28;20807;-76
2023/05/25 02:45:15;;;;;;;7.87;3.10;;;;;;;8.05;97.13;101814.53;5095547;28;20441;-76
2023/05/25 02:47:42;;;;;;;7.50;2.90;;;;;;;7.95;97.72;101813.59;5095359;28;20988;-76
2023/05/25 02:50:09;;;;;;;8.50;3.30;;;;;;;7.91;98.13;101812.47;5095085;28;20452;-76
2023/05/25 02:52:36;;;;;;;10.80;4.30;;;;;;;7.91;98.23;101807.91;5095389;28;20477;-76
2023/05/25 02:55:03;;;;;;;7.73;2.73;;;;;;;7.98;97.80;101810.41;5095395;28;20477;-76
2023/05/25 02:57:30;;;;;;;9.17;3.50;;;;;;;7.92;98.00;101809.53;5095369;28;20463;-76
2023/05/25 02:59:58;;;;;;;8.50;3.37;;;;;;;7.87;98.19;101812.16;5095169;28;20440;-77
2023/05/25 03:02:25;;;;;;;13.40;3.03;;;;;;;8.02;97.63;101809.66;5094700;28;21016;-77
2023/05/25 03:04:52;;;;;;;9.80;3.43;;;;;;;8.02;97.07;101809.66;5095368;28;20444;-77
2023/05/25 03:07:19;;;;;;;10.17;3.17;;;;;;;7.98;96.76;101810.41;5094822;28;20571;-76
2023/05/25 03:09:45;;;;;;;11.83;3.40;;;;;;;8.05;95.73;101813.72;5095088;28;20466;-77
2023/05/25 03:12:12;;;;;;;8.00;3.03;;;;;;;7.95;95.28;101819.00;5094973;28;20523;-77
2023/05/25 03:14:39;;;;;;;8.50;2.80;;;;;;;7.90;95.55;101813.56;5094927;28;20480;-77
2023/05/25 03:17:07;;;;;;;10.33;3.33;;;;;;;7.80;94.43;101817.78;5094512;28;20875;-76
2023/05/25 03:19:33;;;;;;;9.27;3.60;;;;;;;7.82;94.88;101817.50;5094613;28;20946;-77
2023/05/25 03:22:00;;;;;;;8.77;3.13;;;;;;;7.69;94.44;101820.59;5094710;28;20535;-78
2023/05/25 03:24:27;;;;;;;13.97;2.83;;;;;;;7.72;95.03;101820.91;5098085;28;20528;-79
2023/05/25 03:26:54;;;;;;;9.83;2.73;;;;;;;7.66;96.38;101821.06;5097680;28;20946;-78
2023/05/25 03:29:20;;;;;;;13.70;3.60;;;;;;;7.80;96.03;101820.47;5097151;28;20855;-78
2023/05/25 03:31:47;;;;;;;9.23;3.00;;;;;;;7.83;96.12;101825.38;5097384;28;20532;-78
2023/05/25 03:34:16;;;;;;;11.37;3.23;;;;;;;7.84;96.55;101821.59;5096918;28;20486;-78
2023/05/25 03:36:44;;;;;;;13.23;3.30;;;;;;;7.75;97.61;101825.81;5096149;28;20436;-77
2023/05/25 03:39:12;;;;;;;10.57;3.17;;;;;;;7.81;97.63;101822.09;5096152;28;20468;-77
2023/05/25 03:41:38;;;;;;;14.20;3.27;;;;;;;7.98;96.81;101824.72;5095130;28;20436;-77
2023/05/25 03:44:05;;;;;;;10.17;2.80;;;;;;;8.05;96.64;101828.00;5094621;28;20519;-77
2023/05/25 03:46:32;;;;;;;10.43;3.07;;;;;;;8.07;97.27;101833.19;5094216;28;20953;-77
2023/05/25 03:48:58;;;;;;;6.77;2.63;;;;;;;8.01;97.99;101837.72;5094563;28;20555;-77
2023/05/25 03:51:28;;;;;;;8.97;3.00;;;;;;;8.02;98.38;101838.53;5094344;28;20444;-77
2023/05/25 03:53:55;;;;;;;7.93;2.90;;;;;;;8.14;98.21;101844.56;5094696;28;20487;-78
2023/05/25 03:56:22;;;;;;;9.10;2.70;;;;;;;8.18;98.08;101840.31;5094749;28;20498;-77
2023/05/25 03:58:48;;;;;;;9.77;3.87;;;;;;;8.26;98.40;101858.75;5094442;28;20460;-77
2023/05/25 04:01:15;;;;;;;9.20;3.40;;;;;;;8.28;98.57;101859.31;5094176;28;20505;-77
2023/05/25 04:03:42;;;;;;;9.93;3.80;;;;;;;8.31;99.09;101853.41;5094254;28;20467;-77
2023/05/25 04:06:08;;;;;;;14.17;3.47;;;;;;;8.44;99.07;101849.50;5094017;28;20531;-77
2023/05/25 04:08:36;;;;;;;8.10;3.17;;;;;;;8.56;98.67;101852.06;5093846;28;20556;-77
2023/05/25 04:11:03;;;;;;;8.57;3.40;;;;;;;8.63;98.62;101857.22;5093775;28;20996;-77
2023/05/25 04:13:34;;;;;;;12.70;4.30;;;;;;;8.59;99.09;101857.78;5092814;28;21055;-77
2023/05/25 04:16:01;;;;;;;9.37;2.90;;;;;;;8.68;99.06;101860.81;5093666;28;20459;-77
2023/05/25 04:18:27;;;;;;;10.03;3.90;;;;;;;8.69;100.00;101853.53;5093993;28;20464;-77
2023/05/25 04:20:56;;;;;;;8.63;2.80;;;;;;;8.69;100.00;101859.75;5093891;28;20527;-77
2023/05/25 04:23:22;;;;;;;8.90;3.40;;;;;;;8.78;100.00;101866.31;5094309;28;20443;-77
2023/05/25 04:25:50;;;;;;;17.53;4.43;;;;;;;8.88;100.00;101867.47;5093555;28;20445;-77
2023/05/25 04:28:17;;;;;;;7.30;3.07;;;;;;;8.96;100.00;101872.38;5093601;28;20793;-77
2023/05/25 04:30:44;;;;;;;11.17;3.23;;;;;;;9.06;100.00;101867.06;5093762;28;20968;-76
2023/05/25 04:33:11;;;;;;;10.43;3.10;;;;;;;9.06;98.83;101875.97;5093679;28;20492;-76
2023/05/25 04:35:39;;;;;;;11.47;3.97;;;;;;;9.12;98.83;101866.03;5093732;28;20820;-77
2023/05/25 04:38:06;;;;;;;9.53;3.30;;;;;;;9.25;98.40;101873.69;5093954;28;20496;-77
2023/05/25 04:40:34;;;;;;;6.87;2.97;;;;;;;9.41;98.28;101873.78;5093782;28;20483;-78
2023/05/25 04:43:02;;;;;;;10.80;3.93;;;;;;;9.50;98.01;101874.91;5094031;28;20440;-77
2023/05/25 04:45:30;;;;;;;9.00;3.43;;;;;;;9.53;99.23;101879.81;5093690;28;20529;-77
2023/05/25 04:48:00;;;;;;;12.47;4.40;;;;;;;9.56;99.15;101871.16;5093175;28;20522;-77
2023/05/25 04:50:27;;;;;;;11.23;4.83;;;;;;;9.74;99.61;101881.56;5093732;28;20872;-77
2023/05/25 04:52:54;;;;;;;13.50;4.20;;;;;;;9.89;100.00;101874.56;5093511;28;20546;-77
2023/05/25 04:55:20;;;;;;;12.63;4.10;;;;;;;10.02;100.00;101879.50;5093662;28;20481;-77
2023/05/25 04:57:47;;;;;;;12.83;4.67;;;;;;;10.12;100.00;101868.69;5093675;28;20518;-77
2023/05/25 05:00:16;;;;;;;14.43;4.70;;;;;;;10.16;100.00;101869.78;5093606;28;20476;-77
2023/05/25 05:02:43;;;;;;;14.50;4.77;;;;;;;10.33;100.00;101878.53;5093967;28;20483;-76
2023/05/25 05:05:09;;;;;;;15.20;4.43;;;;;;;10.43;100.00;101868.81;5093763;28;20490;-77
2023/05/25 05:07:36;;;;;;;10.43;4.57;;;;;;;10.54;100.00;101867.75;5093305;28;20477;-77
2023/05/25 05:10:04;;;;;;;16.20;5.30;;;;;;;10.63;100.00;101873.47;5093739;28;20440;-78
2023/05/25 05:12:30;;;;;;;11.53;4.27;;;;;;;10.76;100.00;101878.34;5093480;28;20475;-77
2023/05/25 05:14:57;;;;;;;10.70;4.57;;;;;;;10.86;100.00;101873.72;5093057;28;20570;-77
2023/05/25 05:17:26;;;;;;;10.30;4.40;;;;;;;10.99;100.00;101864.25;5092997;28;20898;-77
2023/05/25 05:19:53;;;;;;;22.97;6.53;;;;;;;11.10;100.00;101875.88;5093253;28;20476;-77
2023/05/25 05:22:20;;;;;;;13.70;4.70;;;;;;;11.20;100.00;101873.19;5093463;28;20456;-77
2023/05/25 05:24:46;;;;;;;17.83;5.43;;;;;;;11.33;100.00;101878.03;5095519;28;20429;-77
2023/05/25 05:27:14;;;;;;;13.20;6.00;;;;;;;11.40;100.00;101882.34;5096943;28;20448;-77
2023/05/25 05:29:41;;;;;;;10.43;3.87;;;;;;;11.52;100.00;101872.03;5096729;28;20963;-77
2023/05/25 05:32:07;;;;;;;10.33;4.63;;;;;;;11.64;100.00;101883.38;5097043;28;20545;-77
2023/05/25 05:34:36;;;;;;;15.23;5.20;;;;;;;11.77;100.00;101888.22;5096827;28;20570;-77
2023/05/25 05:37:03;;;;;;;13.87;6.10;;;;;;;11.86;100.00;101896.63;5096770;28;20454;-77
2023/05/25 05:39:30;;;;;;;12.23;5.17;;;;;;;11.97;100.00;101892.00;5096958;28;20436;-77
2023/05/25 05:41:57;;;;;;;17.17;5.53;;;;;;;12.04;100.00;101900.63;5096920;28;20433;-77
2023/05/25 05:44:24;;;;;;;15.50;6.30;;;;;;;12.16;100.00;101901.13;5097424;28;20945;-77
2023/05/25 05:46:50;;;;;;;14.57;6.13;;;;;;;12.25;100.00;101899.44;5096789;28;20440;-77
2023/05/25 05:49:17;;;;;;;11.13;4.67;;;;;;;12.40;99.48;101900.47;5097092;28;20476;-77
2023/05/25 05:51:45;;;;;;;13.83;5.53;;;;;;;12.49;99.13;101898.78;5097123;28;20454;-77
2023/05/25 05:54:11;;;;;;;12.50;5.73;;;;;;;12.56;98.86;101905.50;5097629;28;20527;-77
2023/05/25 05:56:38;;;;;;;13.00;4.90;;;;;;;12.61;99.06;101910.09;5096765;28;20468;-77
2023/05/25 05:59:05;;;;;;;15.70;4.37;;;;;;;12.68;98.88;101904.38;5097418;28;20482;-77
2023/05/25 06:01:32;;;;;;;11.00;4.40;;;;;;;12.80;98.90;101905.63;5097731;28;20444;-77
2023/05/25 06:03:58;;;;;;;23.57;6.53;;;;;;;12.79;98.40;101904.03;5097475;28;20523;-77
2023/05/25 06:06:26;;;;;;;24.07;5.30;;;;;;;12.90;98.59;101912.09;5097064;28;20903;-77
2023/05/25 06:08:54;;;;;;;15.83;5.10;;;;;;;12.95;98.21;101907.41;5096693;28;20924;-77
2023/05/25 06:11:21;;;;;;;9.67;4.37;;;;;;;13.10;97.50;101914.63;5097142;28;20433;-77
2023/05/25 06:13:47;;;;;;;11.17;3.83;;;;;;;13.24;96.51;101921.09;5097131;28;20567;-77
2023/05/25 06:16:14;;;;;;;14.87;5.57;;;;;;;13.35;95.86;101919.88;5096673;28;20503;-77
2023/05/25 06:18:40;;;;;;;13.80;5.10;;;;;;;13.42;95.28;101916.03;5096542;28;21000;-77
2023/05/25 06:21:07;;;;;;;13.70;5.17;;;;;;;13.49;95.32;101922.75;5096834;28;20480;-77
2023/05/25 06:23:34;;;;;;;13.93;4.10;;;;;;;13.57;95.12;101915.88;5096415;28;20528;-77
2023/05/25 06:26:05;;;;;;;13.30;5.23;;;;;;;13.73;94.43;101920.06;5096351;28;20536;-78
2023/05/25 06:28:31;;;;;;;15.30;4.90;;;;;;;13.83;93.30;101921.84;5096943;28;20500;-77
2023/05/25 06:30:58;;;;;;;16.30;5.70;;;;;;;13.88;93.16;101922.59;5096503;28;20449;-77
2023/05/25 06:33:25;;;;;;;10.20;4.10;;;;;;;14.00;93.03;101924.91;5095737;28;20814;-77
2023/05/25 06:35:55;;;;;;;10.93;3.67;;;;;;;14.07;92.59;101930.00;5095210;28;20441;-77
2023/05/25 06:38:22;;;;;;;18.23;5.33;;;;;;;14.12;92.29;101927.19;5096225;28;20487;-77
2023/05/25 06:40:49;;;;;;;12.03;4.90;;;;;;;14.17;91.26;101920.91;5096659;28;20452;-77
2023/05/25 06:43:17;;;;;;;10.33;4.60;;;;;;;14.31;90.57;101932.72;5096969;28;20527;-77
2023/05/25 06:45:44;;;;;;;15.23;5.00;;;;;;;14.35;90.05;101929.09;5096341;28;20445;-78
2023/05/25 06:48:11;;;;;;;11.23;5.23;;;;;;;14.50;90.15;101941.72;5095917;28;20555;-77
2023/05/25 06:50:38;;;;;;;8.67;4.20;;;;;;;14.59;90.42;101939.97;5095571;28;20805;-77
2023/05/25 06:53:05;;;;;;;15.37;5.70;;;;;;;14.73;88.97;101934.56;5096460;28;20444;-78
2023/05/25 06:55:31;;;;;;;10.40;4.20;;;;;;;14.84;88.82;101936.06;5096131;28;20550;-78
2023/05/25 06:57:58;;;;;;;16.53;5.07;;;;;;;14.91;89.93;101934.88;5096426;28;21048;-78
2023/05/25 07:00:26;;;;;;;16.23;4.03;;;;;;;15.08;86.68;101929.69;5096527;28;20452;-77
2023/05/25 07:02:53;;;;;;;15.83;4.10;;;;;;;15.13;86.06;101932.31;5096712;28;20432;-78
2023/05/25 07:05:19;;;;;;;16.23;4.73;;;;;;;15.20;86.33;101938.22;5096687;28;20528;-78
2023/05/25 07:07:46;;;;;;;9.70;3.63;;;;;;;15.32;85.78;101935.81;5095522;28;20485;-78
2023/05/25 07:10:13;;;;;;;12.63;4.20;;;;;;;15.37;84.55;101938.47;5096465;28;20436;-78
2023/05/25 07:12:39;;;;;;;11.77;4.43;;;;;;;15.51;83.39;101943.13;5097137;28;20440;-77
2023/05/25 07:15:07;;;;;;;14.73;4.47;;;;;;;15.67;83.67;101946.41;5096238;28;20563;-78
2023/05/25 07:17:36;;;;;;;17.17;5.23;;;;;;;15.75;81.31;101943.00;5096899;28;20543;-78
2023/05/25 07:20:03;;;;;;;26.83;4.83;;;;;;;15.70;82.51;101946.63;5096480;28;20447;-78
2023/05/25 07:22:29;;;;;;;9.90;4.30;;;;;;;15.61;83.88;101937.47;5099914;28;20524;-79
2023/05/25 07:24:56;;;;;;;26.07;4.23;;;;;;;15.74;83.96;101941.38;5098931;28;20461;-79
2023/05/25 07:27:24;;;;;;;9.17;3.97;;;;;;;15.82;84.88;101940.69;5098375;28;20908;-79
2023/05/25 07:29:50;;;;;;;16.90;4.50;;;;;;;15.88;83.76;101940.25;5097551;28;20531;-78
2023/05/25 07:32:17;;;;;;;12.27;4.37;;;;;;;15.90;84.56;101948.16;5098870;28;20520;-80
2023/05/25 07:34:45;;;;;;;12.37;5.43;;;;;;;16.09;83.36;101948.06;5098392;28;20480;-79
2023/05/25 07:37:12;;;;;;;18.37;5.73;;;;;;;16.12;83.38;101947.47;5098324;28;20496;-79
2023/05/25 07:39:39;;;;;;;18.57;4.27;;;;;;;16.19;81.00;101952.50;5098751;28;20544;-79
2023/05/25 07:42:06;;;;;;;13.53;5.07;;;;;;;16.27;81.79;101949.06;5097599;28;20515;-79
2023/05/25 07:44:33;;;;;;;9.90;3.70;;;;;;;16.38;79.74;101964.16;5098067;28;20459;-79
2023/05/25 07:47:00;;;;;;;9.87;4.07;;;;;;;16.46;77.53;101962.59;5097673;28;21051;-79
2023/05/25 07:49:26;;;;;;;9.00;3.70;;;;;;;16.52;76.71;101964.13;5098011;28;20488;-79
2023/05/25 07:51:54;;;;;;;14.37;4.40;;;;;;;16.47;79.19;101965.03;5097632;28;20844;-78
2023/05/25 07:54:21;;;;;;;17.77;4.00;;;;;;;16.58;77.30;101962.88;5097924;28;20552;-79
2023/05/25 07:56:48;;;;;;;13.80;4.93;;;;;;;16.71;77.84;101969.44;5096567;28;20451;-77
2023/05/25 07:59:14;;;;;;;10.07;4.47;;;;;;;16.79;78.22;101972.28;5094942;28;20479;-77
2023/05/25 08:01:41;;;;;;;8.77;3.30;;;;;;;16.84;72.72;101969.41;5094963;28;20539;-76
2023/05/25 08:04:07;;;;;;;9.53;3.20;;;;;;;16.82;70.29;101968.94;5094602;28;20472;-79
2023/05/25 08:06:34;;;;;;;12.80;3.00;;;;;;;16.86;71.32;101967.16;5098588;28;20440;-80
2023/05/25 08:09:03;;;;;;;14.10;4.57;;;;;;;16.95;73.08;101969.16;5098225;28;20472;-80
2023/05/25 08:11:30;;;;;;;12.10;3.87;;;;;;;16.97;75.06;101958.72;5096331;28;20535;-78
2023/05/25 08:13:56;;;;;;;9.87;4.00;;;;;;;17.07;75.78;101966.69;5097583;28;20524;-79
2023/05/25 08:16:23;;;;;;;12.50;3.87;;;;;;;17.17;74.96;101966.44;5097977;28;20880;-80
2023/05/25 08:18:50;;;;;;;12.10;4.80;;;;;;;17.26;75.28;101964.56;5098351;28;20595;-80
2023/05/25 08:21:16;;;;;;;7.53;2.80;;;;;;;17.30;67.79;101971.03;5097945;28;20527;-80
2023/05/25 08:23:43;;;;;;;7.93;3.13;;;;;;;17.25;68.15;101962.16;5097858;28;20893;-79
2023/05/25 08:26:11;;;;;;;9.43;3.80;;;;;;;17.03;68.28;101973.91;5097882;28;20444;-78
2023/05/25 08:28:38;;;;;;;12.10;3.87;;;;;;;17.09;69.46;101978.97;5097392;28;20548;-77
2023/05/25 08:31:05;;;;;;;15.20;5.47;;;;;;;17.18;69.90;101962.59;5094051;28;20469;-77
2023/05/25 08:33:32;;;;;;;12.43;3.67;;;;;;;17.25;68.80;101971.16;5094860;28;20448;-78
2023/05/25 08:35:58;;;;;;;9.53;3.70;;;;;;;17.29;69.69;101976.84;5094913;28;20491;-78
2023/05/25 08:38:25;;;;;;;8.87;3.77;;;;;;;17.37;69.72;101968.69;5095460;28;20467;-77
2023/05/25 08:41:03;;;;;;;14.43;3.43;;;;;;;17.47;68.68;101970.34;5096355;28;20479;-77
2023/05/25 08:43:31;;;;;;;19.67;4.10;;;;;;;17.59;69.89;101972.50;5094174;28;20425;-76
2023/05/25 08:46:03;;;;;;;11.90;4.37;;;;;;;17.75;67.99;101975.66;5094127;28;20516;-76
2023/05/25 08:48:30;;;;;;;12.53;4.57;;;;;;;17.70;68.96;101973.84;5094086;28;20529;-77
2023/05/25 08:51:00;;;;;;;13.33;4.97;;;;;;;17.75;71.60;101973.75;5093943;28;20971;-77
2023/05/25 08:53:28;;;;;;;14.83;4.30;;;;;;;17.75;72.12;101987.47;5093876;28;20929;-76
2023/05/25 08:55:56;;;;;;;8.83;3.23;;;;;;;17.76;69.34;101975.38;5093720;28;20516;-76
2023/05/25 08:58:32;;;;;;;16.97;4.37;;;;;;;17.68;69.08;101989.81;5093588;28;20545;-76
2023/05/25 09:01:05;;;;;;;8.00;3.40;;;;;;;17.52;71.89;101988.56;5098208;28;20523;-76
2023/05/25 09:03:33;;;;;;;8.87;4.00;;;;;;;17.48;73.37;101987.56;5098356;28;20431;-76
2023/05/25 09:06:00;;;;;;;13.20;4.73;;;;;;;17.39;73.93;101988.31;5097743;28;20465;-78
2023/05/25 09:08:27;;;;;;;20.73;5.70;;;;;;;17.39;74.35;101988.31;5097176;28;20913;-77
2023/05/25 09:10:56;;;;;;;11.83;4.50;;;;;;;17.44;74.04;101989.31;5097620;28;20880;-77
2023/05/25 09:13:23;;;;;;;8.27;3.43;;;;;;;17.48;75.05;101990.31;5097237;28;20440;-77
2023/05/25 09:15:51;;;;;;;11.30;4.50;;;;;;;17.41;74.86;101979.81;5097491;28;20522;-77
2023/05/25 09:18:18;;;;;;;9.10;3.63;;;;;;;17.47;74.66;101981.28;5098546;28;20815;-77
2023/05/25 09:20:45;;;;;;;10.67;3.70;;;;;;;17.59;72.82;101999.91;5098406;28;20479;-77
2023/05/25 09:23:13;;;;;;;9.27;3.43;;;;;;;17.64;72.54;101995.09;5098016;28;20464;-78
2023/05/25 09:25:41;;;;;;;11.30;3.03;;;;;;;17.67;71.64;101998.34;5097550;28;20444;-77
2023/05/25 09:28:09;;;;;;;9.20;3.90;;;;;;;17.68;71.27;102000.75;5098712;28;20453;-77
2023/05/25 09:30:36;;;;;;;8.27;2.87;;;;;;;17.63;70.69;101993.47;5097735;28;20511;-78
2023/05/25 09:33:11;;;;;;;8.87;3.43;;;;;;;17.78;70.92;101997.78;5097580;28;20440;-77
2023/05/25 09:35:38;;;;;;;10.13;3.67;;;;;;;17.76;71.54;101993.75;5097913;28;20487;-77
2023/05/25 09:38:06;;;;;;;9.90;3.40;;;;;;;17.82;70.61;101996.03;5098002;28;21073;-77
2023/05/25 09:40:33;;;;;;;9.83;3.70;;;;;;;17.90;69.18;101997.19;5097876;28;21000;-78
2023/05/25 09:43:01;;;;;;;6.30;2.33;;;;;;;17.88;71.47;102003.00;5097574;28;20440;-76
2023/05/25 09:45:28;;;;;;;14.20;3.77;;;;;;;17.91;67.39;102001.53;5097722;28;20497;-78
2023/05/25 09:47:55;;;;;;;13.07;4.17;;;;;;;17.90;68.60;102008.97;5097434;28;20460;-77
2023/05/25 09:50:23;;;;;;;13.67;4.60;;;;;;;17.88;67.92;102004.91;5096879;28;20515;-77
2023/05/25 09:52:52;;;;;;;8.90;3.90;;;;;;;17.78;68.17;102011.47;5097143;28;20454;-77
2023/05/25 09:55:19;;;;;;;7.50;3.13;;;;;;;17.84;68.52;102004.75;5097736;28;20484;-77
2023/05/25 09:57:46;;;;;;;12.40;4.10;;;;;;;17.88;68.27;102011.22;5097846;28;20539;-78
2023/05/25 10:00:15;;;;;;;9.57;4.00;;;;;;;17.94;69.03;102011.88;5097074;28;20926;-78
2023/05/25 10:02:42;;;;;;;10.20;3.40;;;;;;;17.98;69.10;102012.88;5098253;28;20451;-77
2023/05/25 10:05:09;;;;;;;8.20;3.47;;;;;;;17.90;72.14;102014.44;5097225;28;20472;-78
2023/05/25 10:07:39;;;;;;;17.30;4.83;;;;;;;17.91;68.48;102012.50;5097875;28;20472;-79
2023/05/25 10:10:07;;;;;;;6.90;2.73;;;;;;;18.00;68.44;102016.09;5098199;28;20497;-78
2023/05/25 10:12:34;;;;;;;9.03;3.03;;;;;;;18.16;66.82;102013.75;5098463;28;20490;-77
2023/05/25 10:15:03;;;;;;;9.47;3.97;;;;;;;18.06;67.41;102017.59;5098528;28;20575;-79
2023/05/25 10:17:34;;;;;;;9.53;3.30;;;;;;;18.13;65.25;102014.38;5097841;28;20483;-78
2023/05/25 10:20:04;;;;;;;13.13;4.03;;;;;;;18.24;66.03;102018.47;5096963;28;20512;-78
2023/05/25 10:22:36;;;;;;;9.50;3.33;;;;;;;18.34;68.29;102014.63;5097339;28;20448;-78
2023/05/25 10:25:10;;;;;;;10.00;3.50;;;;;;;18.52;64.64;102015.47;5098047;28;20457;-78
2023/05/25 10:27:40;;;;;;;9.00;4.80;;;;;;;18.50;66.92;102020.44;5097676;28;20522;-78
2023/05/25 10:30:09;;;;;;;10.67;4.10;;;;;;;18.60;68.67;102028.41;5096918;28;20961;-77
2023/05/25 10:32:37;;;;;;;7.53;3.63;;;;;;;18.75;64.00;102019.72;5098290;28;20475;-79
2023/05/25 10:35:05;;;;;;;9.93;3.73;;;;;;;18.69;63.10;102029.25;5097939;28;20523;-78
2023/05/25 10:37:34;;;;;;;9.27;3.60;;;;;;;18.68;64.85;102030.31;5098524;28;20449;-80
2023/05/25 10:40:02;;;;;;;10.60;3.20;;;;;;;18.67;63.61;102021.28;5099816;28;20438;-78
2023/05/25 10:42:30;;;;;;;10.33;3.63;;;;;;;18.97;61.09;102028.94;5099209;28;20441;-82
2023/05/25 10:44:57;;;;;;;8.30;3.30;;;;;;;18.79;62.02;102019.91;5097847;28;20476;-79
2023/05/25 10:47:25;;;;;;;9.00;4.13;;;;;;;18.85;59.97;102015.84;5098205;28;20457;-79
2023/05/25 10:49:53;;;;;;;8.17;3.07;;;;;;;18.83;62.16;102021.69;5097923;28;20548;-77
2023/05/25 10:52:20;;;;;;;6.63;2.90;;;;;;;18.84;61.16;102014.25;5098448;28;20453;-79
2023/05/25 10:54:47;;;;;;;9.10;3.03;;;;;;;18.93;63.40;102017.00;5096803;28;20538;-78
2023/05/25 10:57:19;;;;;;;8.03;3.40;;;;;;;18.93;59.89;102012.31;5097772;28;20463;-79
2023/05/25 10:59:51;;;;;;;7.47;3.20;;;;;;;19.03;59.61;102011.16;5098197;28;20524;-78
2023/05/25 11:02:21;;;;;;;9.03;4.03;;;;;;;19.12;59.03;102018.31;5097719;28;20440;-78
2023/05/25 11:04:49;;;;;;;22.63;3.50;;;;;;;19.25;58.92;102015.69;5096597;28;20429;-77
2023/05/25 11:07:24;;;;;;;7.63;3.07;;;;;;;19.35;61.74;102004.38;5096668;28;20484;-78
2023/05/25 11:09:58;;;;;;;7.77;3.27;;;;;;;19.50;58.52;102011.28;5096554;28;20530;-78
2023/05/25 11:12:26;;;;;;;8.53;3.50;;;;;;;19.63;60.35;102010.31;5096762;28;20455;-78
2023/05/25 11:15:16;;;;;;;9.47;3.70;;;;;;;19.96;57.12;102004.22;5095192;28;20448;-78
2023/05/25 11:17:57;;;;;;;7.17;2.73;;;;;;;20.17;55.73;102007.84;5098497;28;20537;-78
2023/05/25 11:20:27;;;;;;;10.53;3.23;;;;;;;20.74;55.54;102010.13;5096126;28;20532;-78
2023/05/25 11:22:54;;;;;;;7.83;2.50;;;;;;;20.84;51.72;102017.97;5096970;28;20801;-78
2023/05/25 11:25:37;;;;;;;8.20;3.00;;;;;;;20.72;52.14;102015.16;5096842;28;20524;-78
2023/05/25 11:28:05;;;;;;;10.07;2.90;;;;;;;21.13;54.22;102017.09;5098798;28;20499;-78